createdAt,value
2018-07-27T00:03:36.299Z,26.60
2018-07-27T00:07:40.191Z,26.40
2018-07-27T00:11:44.030Z,26.40
2018-07-27T00:15:47.915Z,26.30
2018-07-27T00:19:51.767Z,26.30
2018-07-27T00:23:55.671Z,26.10
2018-07-27T00:27:59.511Z,26.10
2018-07-27T00:32:03.400Z,26.00
2018-07-27T00:36:07.231Z,26.00
2018-07-27T00:40:11.112Z,26.00
2018-07-27T00:44:14.935Z,25.90
2018-07-27T00:48:18.795Z,25.80
2018-07-27T00:52:22.627Z,25.70
2018-07-27T00:56:26.515Z,25.60
2018-07-27T01:00:30.396Z,25.50
2018-07-27T01:04:34.275Z,25.40
2018-07-27T01:08:38.101Z,25.30
2018-07-27T01:12:41.987Z,25.20
2018-07-27T01:16:45.816Z,25.10
2018-07-27T01:20:49.711Z,25.00
2018-07-27T01:24:53.539Z,24.90
2018-07-27T01:28:57.471Z,24.70
2018-07-27T01:33:01.303Z,24.60
2018-07-27T01:37:05.240Z,24.60
2018-07-27T01:41:09.072Z,24.60
2018-07-27T01:45:12.936Z,24.30
2018-07-27T01:49:16.778Z,24.40
2018-07-27T01:53:20.723Z,24.30
2018-07-27T01:57:24.567Z,24.30
2018-07-27T02:01:28.620Z,24.30
2018-07-27T02:05:32.447Z,24.20
2018-07-27T02:09:36.427Z,24.30
2018-07-27T02:13:40.267Z,24.30
2018-07-27T02:21:47.632Z,24.40
2018-07-27T02:25:51.544Z,24.40
2018-07-27T02:29:55.380Z,24.40
2018-07-27T02:33:59.359Z,24.40
2018-07-27T02:38:03.180Z,24.40
2018-07-27T02:42:07.122Z,24.30
2018-07-27T02:46:10.980Z,24.20
2018-07-27T02:50:14.884Z,24.20
2018-07-27T02:54:18.712Z,24.10
2018-07-27T02:58:22.599Z,24.10
2018-07-27T03:02:26.484Z,23.90
2018-07-27T03:06:30.397Z,23.90
2018-07-27T03:10:34.286Z,23.90
2018-07-27T03:14:38.182Z,23.80
2018-07-27T03:18:42.017Z,23.80
2018-07-27T03:22:45.963Z,23.70
2018-07-27T03:26:49.804Z,23.70
2018-07-27T03:30:53.764Z,23.50
2018-07-27T03:34:57.600Z,23.50
2018-07-27T03:39:01.464Z,23.50
2018-07-27T03:43:05.291Z,23.40
2018-07-27T03:47:09.176Z,23.30
2018-07-27T03:51:12.996Z,23.30
2018-07-27T03:55:16.847Z,23.20
2018-07-27T03:59:20.675Z,23.20
2018-07-27T04:03:24.691Z,23.20
2018-07-27T04:07:28.515Z,23.20
2018-07-27T04:11:32.483Z,23.10
2018-07-27T04:15:36.312Z,23.10
2018-07-27T04:19:40.313Z,23.10
2018-07-27T04:23:44.112Z,23.10
2018-07-27T04:27:48.100Z,23.10
2018-07-27T04:31:51.960Z,23.10
2018-07-27T04:35:55.815Z,23.10
2018-07-27T04:39:59.654Z,23.10
2018-07-27T04:44:03.538Z,23.10
2018-07-27T04:48:07.368Z,23.10
2018-07-27T04:52:11.261Z,23.10
2018-07-27T04:56:15.150Z,23.20
2018-07-27T05:00:19.075Z,23.40
2018-07-27T05:04:22.955Z,23.70
2018-07-27T05:08:26.821Z,24.30
2018-07-27T05:12:30.695Z,25.50
2018-07-27T05:16:34.588Z,26.00
2018-07-27T05:20:38.435Z,26.10
2018-07-27T05:28:45.820Z,25.60
2018-07-27T05:32:49.700Z,25.60
2018-07-27T05:36:53.532Z,25.20
2018-07-27T05:40:57.543Z,25.00
2018-07-27T05:49:04.956Z,25.10
2018-07-27T05:53:08.788Z,25.20
2018-07-27T05:57:13.420Z,25.30
2018-07-27T06:01:17.360Z,25.40
2018-07-27T06:05:21.520Z,25.40
2018-07-27T06:09:25.471Z,25.70
2018-07-27T06:13:29.581Z,25.80
2018-07-27T06:17:33.371Z,25.80
2018-07-27T06:29:44.552Z,29.00
2018-07-27T06:33:48.452Z,30.30
2018-07-27T06:37:52.365Z,31.40
2018-07-27T06:41:56.211Z,32.10
2018-07-27T06:46:00.176Z,33.00
2018-07-27T06:50:04.420Z,33.00
2018-07-27T06:54:08.315Z,33.20
2018-07-27T06:58:12.155Z,33.50
2018-07-27T07:02:16.119Z,33.70
2018-07-27T07:06:20.055Z,34.00
2018-07-27T07:10:23.963Z,33.80
2018-07-27T07:18:31.331Z,32.40
2018-07-27T07:38:49.343Z,32.00
2018-07-27T07:42:53.220Z,32.00
2018-07-27T07:51:00.613Z,33.70
2018-07-27T07:55:04.447Z,34.70
2018-07-27T07:59:08.297Z,36.00
2018-07-27T08:07:15.887Z,36.00
2018-07-27T08:15:23.259Z,36.00
2018-07-27T08:19:27.355Z,34.70
2018-07-27T08:23:31.239Z,34.10
2018-07-27T08:27:35.065Z,33.60
2018-07-27T08:39:47.309Z,33.10
2018-07-27T08:43:51.068Z,33.00
2018-07-27T08:47:54.968Z,33.10
2018-07-27T08:51:58.800Z,32.80
2018-07-27T08:56:02.735Z,32.80
2018-07-27T09:00:06.579Z,32.70
2018-07-27T09:04:10.452Z,32.90
2018-07-27T09:12:17.912Z,33.10
2018-07-27T09:16:22.075Z,33.20
2018-07-27T09:20:25.963Z,33.20
2018-07-27T09:24:29.957Z,33.10
2018-07-27T09:28:34.000Z,33.10
2018-07-27T09:36:41.519Z,33.30
2018-07-27T09:40:45.487Z,33.40
2018-07-27T11:47:52.843Z,34.90
2018-07-27T11:51:56.704Z,34.80
2018-07-27T12:20:22.456Z,35.10
2018-07-27T12:36:36.871Z,35.00
2018-07-27T13:09:07.552Z,34.80
2018-07-27T13:17:15.029Z,34.80
2018-07-27T14:01:56.934Z,34.70
2018-07-27T14:06:00.860Z,34.70
2018-07-27T14:18:11.752Z,34.50
2018-07-27T14:34:26.312Z,34.20
2018-07-27T14:50:41.496Z,34.10
2018-07-27T15:19:13.585Z,33.90
2018-07-27T15:27:20.977Z,33.80
2018-07-27T15:51:44.224Z,33.70
2018-07-27T15:55:48.073Z,33.80
2018-07-27T15:59:51.971Z,33.70
2018-07-27T16:32:20.887Z,33.10
2018-07-27T16:44:31.937Z,32.90
2018-07-27T16:48:35.935Z,32.80
2018-07-27T16:52:39.801Z,32.90
2018-07-27T17:04:50.948Z,32.80
2018-07-27T17:33:18.132Z,32.20
2018-07-27T17:45:29.339Z,32.10
2018-07-27T17:49:33.207Z,32.00
2018-07-27T18:05:47.851Z,31.70
2018-07-27T18:09:52.055Z,31.60
2018-07-27T18:13:55.909Z,31.40
2018-07-27T18:17:59.832Z,31.40
2018-07-27T18:42:22.948Z,30.80
2018-07-27T18:46:27.033Z,30.70
2018-07-27T18:50:31.019Z,30.60
2018-07-27T18:58:38.600Z,30.20
2018-07-27T19:06:46.011Z,29.90
2018-07-27T19:35:11.280Z,28.90
2018-07-27T19:47:22.684Z,28.50
2018-07-27T19:51:26.528Z,28.30
2018-07-27T20:03:37.607Z,28.00
2018-07-27T20:27:59.975Z,27.40
2018-07-27T20:32:03.847Z,27.30
2018-07-27T20:48:18.556Z,27.10
2018-07-27T21:00:29.551Z,26.80
2018-07-27T21:04:33.427Z,26.70
2018-07-27T21:08:37.300Z,26.70
2018-07-27T21:53:17.989Z,26.20
2018-07-27T21:57:21.856Z,26.20
2018-07-27T22:09:33.164Z,26.10
2018-07-27T22:13:37.005Z,26.10
2018-07-27T22:21:44.610Z,26.00
2018-07-27T23:22:39.251Z,24.90
2018-07-27T23:59:11.501Z,24.60
